Terminal Aerodrome Forecast
Issued by NWS

Home | Current Version | Previous Version | Text Only | Print | Product List | Glossary On
Versions: 1 2 3 4 5 6 7 8 9 10 11 12
846
FTUS44 KJAN 301749
TAFHKS
TAF
KHKS 301749Z 3018/3118 17015G24KT P6SM BKN017
     FM302100 19013G26KT P6SM VCTS BKN090CB BKN250
     FM302300 22009KT P6SM VCSH SCT250
     FM310300 23004KT P6SM FEW250=

USA.gov is the U.S. government's official web portal to all federal, state and local government web resources and services.